Time;durP1;ratioP1;P1;durP2;ratioP2;P2;SDS_P1;SDS_P2;PMS_P1;PMS_P2;Temp;Humidity;BMP_temperature;BMP_pressure;BME280_temperature;BME280_humidity;BME280_pressure;Samples;Min_cycle;Max_cycle;Signal;HPM_P1;HPM_P2
2021/06/08 16:00:53;;;;;;;12.20;7.10;;;32.80;55.10;;;;;;5120859;27;20308;-62
2021/06/08 16:03:21;;;;;;;7.32;6.35;;;33.00;55.90;;;;;;5087298;28;20109;-63
2021/06/08 16:05:47;;;;;;;7.32;5.50;;;33.20;55.10;;;;;;5088749;28;20062;-64
2021/06/08 16:08:15;;;;;;;10.55;7.75;;;33.30;54.40;;;;;;5088817;28;20113;-63
2021/06/08 16:10:41;;;;;;;8.45;6.95;;;33.70;54.30;;;;;;5088879;28;20020;-64
2021/06/08 16:13:11;;;;;;;7.13;6.00;;;34.30;52.30;;;;;;5088780;28;20115;-64
2021/06/08 16:15:37;;;;;;;6.72;5.43;;;34.40;53.20;;;;;;5087639;28;20035;-64
2021/06/08 16:18:03;;;;;;;9.48;6.57;;;34.20;54.20;;;;;;5089043;28;20028;-64
2021/06/08 16:20:29;;;;;;;7.93;5.30;;;34.30;52.70;;;;;;5087547;28;20021;-63
2021/06/08 16:22:56;;;;;;;10.90;5.93;;;34.60;52.80;;;;;;5088636;28;20097;-63
2021/06/08 16:25:26;;;;;;;6.53;5.28;;;34.70;52.60;;;;;;5088754;28;20016;-64
2021/06/08 16:27:52;;;;;;;10.18;7.20;;;35.00;51.60;;;;;;5087407;28;20032;-63
2021/06/08 16:30:18;;;;;;;6.80;6.10;;;35.00;53.10;;;;;;5088667;28;20024;-63
2021/06/08 16:32:44;;;;;;;7.00;5.97;;;33.60;56.00;;;;;;5087410;28;20120;-63
2021/06/08 16:35:14;;;;;;;6.20;5.00;;;33.00;53.90;;;;;;5088499;28;20454;-62
2021/06/08 16:37:43;;;;;;;6.45;5.80;;;32.70;56.00;;;;;;5088296;28;20370;-63
2021/06/08 16:40:11;;;;;;;6.97;5.20;;;32.40;54.90;;;;;;5088385;28;20430;-63
2021/06/08 16:42:37;;;;;;;10.98;6.00;;;32.90;54.50;;;;;;5088319;28;20024;-63
2021/06/08 16:45:04;;;;;;;7.38;6.07;;;32.50;54.70;;;;;;5087118;28;20161;-63
2021/06/08 16:47:32;;;;;;;6.18;5.60;;;32.60;55.20;;;;;;5086996;28;20383;-63
2021/06/08 16:49:58;;;;;;;7.90;6.10;;;32.10;54.90;;;;;;5072143;28;20021;-64
2021/06/08 16:55:11;;;;;;;8.73;5.60;;;30.80;57.20;;;;;;5066775;28;20046;-63
2021/06/08 16:57:39;;;;;;;8.48;6.90;;;31.20;56.40;;;;;;5069102;28;20017;-63
2021/06/08 17:00:07;;;;;;;10.68;7.45;;;31.20;55.50;;;;;;5067057;28;20043;-64
2021/06/08 17:02:35;;;;;;;7.53;6.10;;;30.90;55.90;;;;;;5067135;28;20072;-64
2021/06/08 17:05:03;;;;;;;8.32;6.20;;;30.70;57.60;;;;;;5067184;28;20017;-64
2021/06/08 17:07:33;;;;;;;7.85;6.30;;;30.60;58.10;;;;;;5067094;28;20028;-64
2021/06/08 17:09:59;;;;;;;9.02;6.65;;;31.20;55.60;;;;;;5066611;28;20037;-64
2021/06/08 17:12:25;;;;;;;6.35;5.60;;;31.00;56.40;;;;;;5053404;28;20032;-64
2021/06/08 17:14:50;;;;;;;11.82;6.53;;;30.60;57.00;;;;;;5053817;28;20090;-64
2021/06/08 17:17:16;;;;;;;6.80;4.93;;;30.30;56.80;;;;;;5052834;28;20041;-64
2021/06/08 17:19:45;;;;;;;10.30;6.63;;;29.80;58.80;;;;;;5053414;28;20033;-64
2021/06/08 17:22:11;;;;;;;7.03;6.00;;;30.00;59.30;;;;;;5053851;28;20028;-64
2021/06/08 17:24:40;;;;;;;8.27;6.03;;;30.20;59.40;;;;;;5053583;28;20070;-64
2021/06/08 17:27:06;;;;;;;7.82;6.30;;;30.50;58.10;;;;;;5053980;28;20017;-63
2021/06/08 17:29:34;;;;;;;11.43;6.68;;;29.60;59.10;;;;;;5054786;28;20032;-64
2021/06/08 17:31:59;;;;;;;9.00;7.10;;;28.80;61.00;;;;;;5053492;28;20381;-63
2021/06/08 17:34:27;;;;;;;9.70;7.60;;;28.50;61.20;;;;;;5053362;28;20056;-63
2021/06/08 17:36:54;;;;;;;8.07;6.20;;;27.80;62.40;;;;;;5053389;28;20044;-63
2021/06/08 17:39:24;;;;;;;8.88;7.60;;;27.50;63.90;;;;;;5053145;28;20028;-64
2021/06/08 17:41:50;;;;;;;8.10;6.47;;;27.30;64.30;;;;;;5055444;28;20025;-63
2021/06/08 17:44:15;;;;;;;10.02;6.35;;;26.90;64.60;;;;;;5053521;28;20535;-64
2021/06/08 17:46:46;;;;;;;10.00;6.72;;;27.10;64.90;;;;;;5053342;28;20063;-65
2021/06/08 17:49:16;;;;;;;8.18;7.13;;;27.30;63.60;;;;;;5053159;28;20028;-65
2021/06/08 17:51:42;;;;;;;7.00;6.07;;;27.30;65.10;;;;;;5050576;28;20017;-64
2021/06/08 17:54:07;;;;;;;8.48;6.47;;;27.20;64.60;;;;;;5054957;28;20111;-64
2021/06/08 17:56:34;;;;;;;10.98;6.50;;;27.10;64.90;;;;;;5052744;28;20029;-64
2021/06/08 17:59:00;;;;;;;6.18;5.57;;;27.10;65.50;;;;;;5052864;28;20052;-63
2021/06/08 18:01:26;;;;;;;8.57;6.50;;;27.00;65.00;;;;;;5052853;28;20039;-64
2021/06/08 18:03:52;;;;;;;8.93;6.45;;;27.00;65.80;;;;;;5053055;28;20025;-65
2021/06/08 18:06:18;;;;;;;8.88;6.60;;;26.80;65.70;;;;;;5053125;28;20079;-64
2021/06/08 18:08:44;;;;;;;6.72;6.03;;;26.70;65.50;;;;;;5052993;28;20420;-64
2021/06/08 18:11:10;;;;;;;7.65;6.20;;;26.50;65.80;;;;;;5052919;28;20162;-64
2021/06/08 18:13:35;;;;;;;7.03;6.32;;;26.30;66.60;;;;;;5052866;28;20024;-64
2021/06/08 18:16:10;;;;;;;7.60;5.50;;;26.20;66.80;;;;;;5052811;28;20435;-64
2021/06/08 18:18:40;;;;;;;6.88;5.97;;;26.00;66.50;;;;;;5051782;28;20017;-64
2021/06/08 18:21:07;;;;;;;10.77;6.55;;;25.80;67.60;;;;;;5053006;28;20398;-64
2021/06/08 18:23:34;;;;;;;7.80;6.53;;;25.70;68.30;;;;;;5053762;28;20478;-64
2021/06/08 18:26:00;;;;;;;7.93;6.05;;;25.50;68.70;;;;;;5052430;28;20017;-64
2021/06/08 18:28:26;;;;;;;6.57;5.57;;;25.40;68.60;;;;;;5051445;28;20097;-63
2021/06/08 18:30:53;;;;;;;7.57;6.80;;;24.60;68.50;;;;;;5052751;28;20094;-64
2021/06/08 18:33:22;;;;;;;5.90;5.30;;;25.10;69.60;;;;;;5052496;28;20021;-64
2021/06/08 18:35:48;;;;;;;7.40;5.90;;;24.90;70.50;;;;;;5052155;28;20094;-64
2021/06/08 18:38:16;;;;;;;9.32;6.43;;;24.70;72.70;;;;;;5052048;28;20443;-64
2021/06/08 18:40:43;;;;;;;7.45;6.10;;;24.50;72.00;;;;;;5051879;28;20442;-64
2021/06/08 18:43:09;;;;;;;9.02;6.57;;;24.20;73.20;;;;;;5052018;28;20025;-64
2021/06/08 18:45:36;;;;;;;7.25;6.07;;;24.00;74.00;;;;;;5052135;28;20029;-64
2021/06/08 18:48:03;;;;;;;8.80;6.75;;;23.90;74.40;;;;;;5052063;28;20035;-64
2021/06/08 18:50:28;;;;;;;7.13;6.43;;;23.70;75.70;;;;;;5051957;28;20021;-65
2021/06/08 18:52:57;;;;;;;7.68;6.53;;;23.50;76.60;;;;;;5058328;28;20040;-64
2021/06/08 18:55:22;;;;;;;7.72;6.00;;;23.40;77.90;;;;;;5052012;28;20025;-64
2021/06/08 18:57:48;;;;;;;8.32;6.65;;;23.30;80.00;;;;;;5051848;28;20036;-63
2021/06/08 19:00:16;;;;;;;10.88;7.22;;;23.10;82.50;;;;;;5051668;28;20056;-64
2021/06/08 19:02:44;;;;;;;9.75;6.50;;;23.00;84.40;;;;;;5051554;28;20021;-64
2021/06/08 19:05:12;;;;;;;8.88;6.28;;;22.90;85.90;;;;;;5051856;28;20044;-64
2021/06/08 19:07:41;;;;;;;8.88;5.80;;;22.70;89.00;;;;;;5051718;28;20028;-64
2021/06/08 19:10:09;;;;;;;7.35;6.20;;;22.60;90.40;;;;;;5051688;28;20017;-64
2021/06/08 19:12:35;;;;;;;9.70;6.20;;;22.50;91.30;;;;;;5051984;28;20033;-64
2021/06/08 19:15:02;;;;;;;7.03;5.78;;;22.40;92.20;;;;;;5051653;28;20029;-64
2021/06/08 19:17:29;;;;;;;6.90;5.93;;;22.30;93.50;;;;;;5051709;28;20111;-64
2021/06/08 19:19:56;;;;;;;7.72;5.68;;;22.10;94.60;;;;;;5051567;28;20025;-64
2021/06/08 19:22:26;;;;;;;8.63;6.28;;;22.00;96.30;;;;;;5061316;28;20020;-64
2021/06/08 19:24:57;;;;;;;8.52;6.20;;;21.90;96.50;;;;;;5051381;28;20045;-64
2021/06/08 19:27:22;;;;;;;;;;;21.80;97.20;;;;;;5051985;28;20039;-64
2021/06/08 19:29:48;;;;;;;8.63;6.57;;;21.70;98.10;;;;;;5051561;28;19904;-64
2021/06/08 19:32:14;;;;;;;7.75;6.20;;;21.50;98.90;;;;;;5051240;28;20439;-65
2021/06/08 19:34:42;;;;;;;9.02;6.93;;;21.50;99.90;;;;;;5051410;28;20028;-64
2021/06/08 19:37:08;;;;;;;7.05;6.35;;;21.30;99.90;;;;;;5051224;28;20044;-64
2021/06/08 19:39:33;;;;;;;6.15;5.55;;;21.20;99.90;;;;;;5051291;28;20029;-64
2021/06/08 19:42:02;;;;;;;7.40;5.93;;;21.10;99.90;;;;;;5051112;28;20092;-64
2021/06/08 19:44:30;;;;;;;7.78;6.68;;;20.90;99.90;;;;;;5050787;28;20027;-64
2021/06/08 19:46:55;;;;;;;8.23;6.00;;;20.80;99.90;;;;;;5050679;28;20054;-64
2021/06/08 19:49:21;;;;;;;8.75;6.45;;;20.80;99.90;;;;;;5049790;28;20060;-65
2021/06/08 19:51:47;;;;;;;7.95;6.38;;;20.80;99.90;;;;;;5050236;28;20032;-66
2021/06/08 19:54:12;;;;;;;9.48;7.10;;;20.70;99.90;;;;;;5050851;28;20627;-65
2021/06/08 19:56:38;;;;;;;13.00;7.50;;;20.60;99.90;;;;;;5051026;28;20021;-63
2021/06/08 19:59:04;;;;;;;8.60;6.95;;;20.50;99.90;;;;;;5049406;28;20041;-63
2021/06/08 20:01:29;;;;;;;8.18;6.53;;;20.40;99.90;;;;;;5050840;28;20439;-64
2021/06/08 20:03:58;;;;;;;9.40;7.53;;;20.20;99.90;;;;;;5050536;28;20051;-63
2021/06/08 20:06:26;;;;;;;10.57;7.38;;;20.20;99.90;;;;;;5050799;28;20024;-64
2021/06/08 20:08:54;;;;;;;11.95;7.10;;;20.10;99.90;;;;;;5050562;28;20124;-63
2021/06/08 20:11:22;;;;;;;10.07;8.25;;;20.00;99.90;;;;;;5049713;28;20029;-63
2021/06/08 20:13:52;;;;;;;11.88;8.48;;;20.20;99.90;;;;;;5050515;28;20102;-63
2021/06/08 20:16:19;;;;;;;11.02;8.05;;;20.10;99.90;;;;;;5050521;28;20021;-64
2021/06/08 20:18:45;;;;;;;13.23;8.45;;;20.00;99.90;;;;;;5050527;28;20028;-64
2021/06/08 20:21:11;;;;;;;10.88;7.80;;;19.90;99.90;;;;;;5050423;28;20021;-63
2021/06/08 20:23:40;;;;;;;11.65;8.68;;;19.80;99.90;;;;;;5052409;28;20028;-63
2021/06/08 20:26:06;;;;;;;14.73;8.38;;;19.80;99.90;;;;;;5050447;28;20013;-63
2021/06/08 20:28:32;;;;;;;12.55;9.23;;;19.70;99.90;;;;;;5050358;28;20023;-63
2021/06/08 20:30:57;;;;;;;12.40;8.85;;;19.60;99.90;;;;;;5049193;28;20345;-63
2021/06/08 20:33:23;;;;;;;14.05;9.98;;;19.50;99.90;;;;;;5050165;28;20079;-64
2021/06/08 20:35:49;;;;;;;14.35;10.18;;;19.40;99.90;;;;;;5050585;28;20033;-62
2021/06/08 20:38:17;;;;;;;13.45;10.30;;;19.30;99.90;;;;;;5050212;28;20017;-63
2021/06/08 20:40:43;;;;;;;10.55;8.82;;;19.30;99.90;;;;;;5073049;28;20112;-63
2021/06/08 20:43:14;;;;;;;13.40;10.13;;;19.30;99.90;;;;;;5050214;28;20120;-64
2021/06/08 20:45:42;;;;;;;12.93;9.82;;;19.20;99.90;;;;;;5050811;28;20024;-62
2021/06/08 20:48:10;;;;;;;13.45;10.02;;;19.20;99.90;;;;;;5053750;28;20020;-62
2021/06/08 20:50:39;;;;;;;13.95;10.18;;;19.20;99.90;;;;;;5049657;28;20090;-62
2021/06/08 20:53:07;;;;;;;13.55;9.60;;;19.10;99.90;;;;;;5052057;28;20021;-63
2021/06/08 20:55:33;;;;;;;12.90;8.85;;;19.20;99.90;;;;;;5047946;28;20105;-63
2021/06/08 20:57:59;;;;;;;12.25;8.73;;;19.10;99.90;;;;;;5053371;28;20108;-63
2021/06/08 21:00:26;;;;;;;17.92;9.52;;;19.00;99.90;;;;;;5051143;28;20059;-63
2021/06/08 21:02:54;;;;;;;14.98;9.88;;;19.00;99.90;;;;;;5048282;28;20021;-63
2021/06/08 21:05:20;;;;;;;14.15;9.55;;;18.90;99.90;;;;;;5052969;28;20017;-63
2021/06/08 21:07:53;;;;;;;13.85;9.40;;;18.90;99.90;;;;;;5052187;28;20615;-64
2021/06/08 21:10:19;;;;;;;14.23;10.70;;;18.90;99.90;;;;;;5058631;28;20104;-63
2021/06/08 21:12:44;;;;;;;14.38;10.48;;;18.80;99.90;;;;;;5053334;28;20922;-64
2021/06/08 21:15:13;;;;;;;13.32;10.82;;;18.70;99.90;;;;;;5050231;28;20055;-63
2021/06/08 21:17:41;;;;;;;12.57;10.00;;;18.60;99.90;;;;;;5053780;28;20017;-63
2021/06/08 21:20:07;;;;;;;17.40;12.75;;;18.60;99.90;;;;;;5052740;28;20025;-63
2021/06/08 21:22:32;;;;;;;13.15;10.60;;;18.70;99.90;;;;;;5056092;28;20091;-63
2021/06/08 21:25:00;;;;;;;14.32;11.13;;;18.80;99.90;;;;;;5045978;28;20059;-63
2021/06/08 21:27:28;;;;;;;20.67;10.70;;;18.80;99.90;;;;;;5052977;28;20021;-63
2021/06/08 21:29:53;;;;;;;13.60;11.02;;;18.80;99.90;;;;;;5053712;28;20402;-63
2021/06/08 21:32:19;;;;;;;14.50;10.88;;;18.70;99.90;;;;;;5053501;28;20032;-63
2021/06/08 21:34:45;;;;;;;15.38;11.70;;;18.80;99.90;;;;;;5046845;28;20063;-63
2021/06/08 21:37:10;;;;;;;15.77;11.48;;;18.70;99.90;;;;;;5053397;28;20100;-66
2021/06/08 21:39:38;;;;;;;13.60;10.85;;;18.60;99.90;;;;;;5053469;28;20029;-62
2021/06/08 21:42:06;;;;;;;14.90;11.43;;;18.50;99.90;;;;;;5053476;28;20031;-63
2021/06/08 21:44:35;;;;;;;14.40;12.05;;;18.40;99.90;;;;;;5049384;28;20051;-62
2021/06/08 21:47:00;;;;;;;18.98;12.45;;;18.40;99.90;;;;;;5053182;28;20017;-63
2021/06/08 21:49:26;;;;;;;16.52;12.57;;;18.30;99.90;;;;;;5052524;28;20029;-63
2021/06/08 21:51:53;;;;;;;18.15;12.68;;;18.20;99.90;;;;;;5053706;28;20038;-62
2021/06/08 21:54:19;;;;;;;16.42;13.02;;;18.20;99.90;;;;;;5053354;28;20039;-62
2021/06/08 21:56:45;;;;;;;19.40;13.32;;;18.20;99.90;;;;;;5053090;28;20120;-63
2021/06/08 21:59:12;;;;;;;16.48;12.77;;;18.20;99.90;;;;;;5052955;28;20107;-63
2021/06/08 22:01:42;;;;;;;16.73;12.95;;;18.10;99.90;;;;;;5051500;28;20494;-63
2021/06/08 22:04:10;;;;;;;17.75;12.23;;;18.10;99.90;;;;;;5053205;28;20036;-64
2021/06/08 22:06:36;;;;;;;19.50;13.25;;;18.00;99.90;;;;;;5052907;28;20024;-63
2021/06/08 22:09:05;;;;;;;16.40;11.60;;;18.00;99.90;;;;;;5052859;28;20453;-63
2021/06/08 22:11:33;;;;;;;16.48;12.05;;;18.00;99.90;;;;;;5051980;28;20094;-64
2021/06/08 22:14:01;;;;;;;14.25;11.60;;;18.10;99.90;;;;;;5050745;28;20029;-63
2021/06/08 22:16:30;;;;;;;14.07;11.18;;;18.00;99.90;;;;;;5053020;28;20029;-63
2021/06/08 22:18:55;;;;;;;16.60;11.57;;;17.80;99.90;;;;;;5052468;28;20033;-63
2021/06/08 22:21:23;;;;;;;17.63;12.02;;;17.70;99.90;;;;;;5053243;28;20488;-63
2021/06/08 22:23:49;;;;;;;13.65;11.90;;;17.60;99.90;;;;;;5058936;28;20338;-63
2021/06/08 22:26:14;;;;;;;17.75;11.88;;;17.10;99.90;;;;;;5052748;28;20025;-63
2021/06/08 22:28:40;;;;;;;15.65;11.35;;;17.40;99.90;;;;;;5052569;28;20032;-63
2021/06/08 22:31:08;;;;;;;13.80;11.65;;;17.40;99.90;;;;;;5052426;28;20048;-63
2021/06/08 22:33:33;;;;;;;17.17;12.45;;;17.30;99.90;;;;;;5052406;28;20029;-63
2021/06/08 22:35:59;;;;;;;14.68;11.75;;;17.30;99.90;;;;;;5052256;28;20056;-63
2021/06/08 22:38:25;;;;;;;15.88;12.55;;;17.30;99.90;;;;;;5052267;28;20044;-63
2021/06/08 22:40:51;;;;;;;16.13;12.73;;;17.30;99.90;;;;;;5055290;28;20434;-63
2021/06/08 22:43:17;;;;;;;15.52;12.30;;;17.20;99.90;;;;;;5052339;28;20088;-63
2021/06/08 22:45:43;;;;;;;22.52;12.43;;;17.20;99.90;;;;;;5052250;28;20024;-63
2021/06/08 22:48:09;;;;;;;16.00;12.95;;;17.20;99.90;;;;;;5051784;28;20083;-63
2021/06/08 22:50:34;;;;;;;13.65;11.93;;;17.30;99.90;;;;;;5045399;28;20033;-63
2021/06/08 22:53:00;;;;;;;17.40;12.70;;;17.30;99.90;;;;;;5055227;28;20039;-63
2021/06/08 22:55:29;;;;;;;15.18;12.55;;;17.40;99.90;;;;;;5052161;28;20032;-63
2021/06/08 22:57:57;;;;;;;16.58;12.27;;;17.20;99.90;;;;;;5049949;28;20104;-63
2021/06/08 23:00:23;;;;;;;15.23;13.13;;;17.10;99.90;;;;;;5050483;28;20045;-63
2021/06/08 23:02:52;;;;;;;15.40;13.02;;;17.00;99.90;;;;;;5050640;28;20033;-61
2021/06/08 23:05:18;;;;;;;16.65;13.23;;;16.90;99.90;;;;;;5051807;28;20351;-61
2021/06/08 23:07:47;;;;;;;17.42;12.48;;;16.80;99.90;;;;;;5051686;28;20061;-62
2021/06/08 23:10:16;;;;;;;15.35;12.65;;;16.80;99.90;;;;;;5039050;28;20188;-62
2021/06/08 23:12:42;;;;;;;16.58;13.57;;;16.80;99.90;;;;;;5083971;28;20032;-62
2021/06/08 23:15:10;;;;;;;20.13;14.27;;;16.80;99.90;;;;;;5051670;28;20162;-61
2021/06/08 23:17:39;;;;;;;16.05;12.90;;;16.90;99.90;;;;;;5051760;28;20096;-61
2021/06/08 23:20:10;;;;;;;15.27;12.45;;;16.90;99.90;;;;;;5051730;28;20406;-61
2021/06/08 23:22:36;;;;;;;15.48;11.93;;;16.70;99.90;;;;;;5051914;28;20029;-61
2021/06/08 23:25:03;;;;;;;14.75;12.63;;;16.70;99.90;;;;;;5051763;28;20063;-62
2021/06/08 23:27:29;;;;;;;17.20;13.65;;;16.60;99.90;;;;;;5051488;28;20525;-62
2021/06/08 23:29:55;;;;;;;21.48;14.20;;;16.60;99.90;;;;;;5057841;28;20054;-61
2021/06/08 23:32:25;;;;;;;19.35;15.00;;;16.80;99.90;;;;;;5051661;28;20025;-62
2021/06/08 23:34:51;;;;;;;18.27;14.47;;;16.90;99.90;;;;;;5050373;28;20489;-61
2021/06/08 23:37:16;;;;;;;16.17;13.93;;;16.90;99.90;;;;;;5050729;28;20256;-61
2021/06/08 23:39:45;;;;;;;15.45;13.52;;;17.00;99.90;;;;;;5051007;28;20029;-62
2021/06/08 23:42:10;;;;;;;14.95;13.15;;;16.90;99.90;;;;;;5051489;28;20413;-61
2021/06/08 23:44:36;;;;;;;18.02;13.85;;;16.70;99.90;;;;;;5051563;28;20021;-61
2021/06/08 23:47:02;;;;;;;16.95;15.15;;;16.60;99.90;;;;;;5051402;28;20115;-61
2021/06/08 23:49:30;;;;;;;16.92;13.85;;;16.60;99.90;;;;;;5051161;28;20021;-62
2021/06/08 23:51:58;;;;;;;17.52;13.32;;;16.50;99.90;;;;;;5052106;28;20040;-62
2021/06/08 23:54:23;;;;;;;16.95;14.38;;;16.50;99.90;;;;;;5053193;28;20028;-61
2021/06/08 23:56:49;;;;;;;16.05;13.45;;;16.50;99.90;;;;;;5049960;28;20036;-62
2021/06/08 23:59:15;;;;;;;16.75;14.23;;;16.40;99.90;;;;;;5050976;28;20115;-62
